📊 Raw Sensor Data

Showing records 32726 to 32750 of 84,726 total

ID Distance (ft) Battery V Battery A Int Temp (°F) Int Humid (%) Ext Temp (°F) Solar V RSSI SNR Time Stamp
52013 14.7 4.02 -5 66 47 68 0.00 -72 7 09/14/2025 09:45 PM
52012 14.8 3.97 -5 67 47 68 0.00 -72 8 09/14/2025 09:30 PM
52011 14.7 3.97 -5 68 48 69 0.00 -73 8 09/14/2025 09:00 PM
52010 14.7 3.97 -5 69 48 69 0.00 -73 8 09/14/2025 08:45 PM
52009 14.7 3.97 -5 70 49 70 0.00 -74 8 09/14/2025 08:30 PM
52008 14.7 4.03 -5 71 50 71 0.00 -73 7 09/14/2025 08:15 PM
52007 14.8 3.97 -5 72 52 72 0.00 -74 8 09/14/2025 08:00 PM
52006 14.8 3.97 -5 73 53 72 0.10 -74 7 09/14/2025 07:45 PM
52005 14.7 4.03 -5 75 55 74 0.50 -75 7 09/14/2025 07:30 PM
52004 14.8 3.97 -10 79 56 75 4.30 -72 7 09/14/2025 07:15 PM
52003 14.8 4.04 0 85 54 79 4.50 -73 8 09/14/2025 07:00 PM
52002 14.8 4.06 10 89 52 82 4.60 -74 7 09/14/2025 06:45 PM
52001 14.8 4.05 31 92 51 84 4.50 -73 7 09/14/2025 06:30 PM
52000 14.8 4.14 0 95 50 86 5.10 -74 8 09/14/2025 06:15 PM
51999 14.8 4.03 0 98 49 87 5.10 -75 7 09/14/2025 06:00 PM
51998 14.9 4.02 0 100 48 89 5.10 -75 7 09/14/2025 05:45 PM
51997 15.0 4.02 0 101 48 90 5.10 -74 7 09/14/2025 05:30 PM
51996 15.0 4.02 0 103 46 92 5.10 -73 8 09/14/2025 05:15 PM
51995 15.0 4.10 0 104 46 91 5.10 -73 8 09/14/2025 05:00 PM
51994 15.0 4.02 0 104 45 91 5.10 -74 7 09/14/2025 04:45 PM
51993 15.0 4.06 0 104 44 90 5.10 -73 8 09/14/2025 04:30 PM
51992 15.0 4.02 0 104 44 92 5.10 -74 7 09/14/2025 04:15 PM
51991 15.0 4.02 0 104 43 89 5.10 -74 8 09/14/2025 04:00 PM
51990 15.0 4.14 0 102 43 87 5.10 -71 8 09/14/2025 03:45 PM
51989 13.9 4.02 0 102 43 88 5.10 -73 8 09/14/2025 03:30 PM